sensor_id;sensor_type;location;lat;lon;timestamp;P1;durP1;ratioP1;P2;durP2;ratioP2
7829;SDS011;3960;51.86894000;5.39848000;2024-03-07T00:00:25;75.75;;;34.28;;
7829;SDS011;3960;51.86894000;5.39848000;2024-03-07T00:02:51;87.28;;;35.70;;
7829;SDS011;3960;51.86894000;5.39848000;2024-03-07T00:05:17;81.30;;;35.85;;
7829;SDS011;3960;51.86894000;5.39848000;2024-03-07T00:07:46;84.88;;;33.85;;
7829;SDS011;3960;51.86894000;5.39848000;2024-03-07T00:10:15;82.03;;;34.17;;
7829;SDS011;3960;51.86894000;5.39848000;2024-03-07T00:12:42;84.10;;;35.80;;
7829;SDS011;3960;51.86894000;5.39848000;2024-03-07T00:15:08;96.70;;;36.55;;
7829;SDS011;3960;51.86894000;5.39848000;2024-03-07T00:17:38;81.28;;;34.47;;
7829;SDS011;3960;51.86894000;5.39848000;2024-03-07T00:20:03;89.50;;;36.72;;
7829;SDS011;3960;51.86894000;5.39848000;2024-03-07T00:22:33;87.63;;;36.35;;
7829;SDS011;3960;51.86894000;5.39848000;2024-03-07T00:24:59;84.43;;;35.08;;
7829;SDS011;3960;51.86894000;5.39848000;2024-03-07T00:27:24;95.35;;;38.08;;
7829;SDS011;3960;51.86894000;5.39848000;2024-03-07T00:29:51;97.50;;;37.40;;
7829;SDS011;3960;51.86894000;5.39848000;2024-03-07T00:32:20;103.40;;;37.75;;
7829;SDS011;3960;51.86894000;5.39848000;2024-03-07T00:34:45;89.32;;;36.45;;
7829;SDS011;3960;51.86894000;5.39848000;2024-03-07T00:37:11;94.30;;;36.78;;
7829;SDS011;3960;51.86894000;5.39848000;2024-03-07T00:39:37;89.07;;;35.20;;
7829;SDS011;3960;51.86894000;5.39848000;2024-03-07T00:42:03;81.55;;;36.05;;
7829;SDS011;3960;51.86894000;5.39848000;2024-03-07T00:44:28;88.25;;;35.05;;
7829;SDS011;3960;51.86894000;5.39848000;2024-03-07T00:46:54;94.53;;;35.70;;
7829;SDS011;3960;51.86894000;5.39848000;2024-03-07T00:49:19;80.15;;;35.38;;
7829;SDS011;3960;51.86894000;5.39848000;2024-03-07T00:51:45;95.20;;;38.28;;
7829;SDS011;3960;51.86894000;5.39848000;2024-03-07T00:54:11;95.88;;;37.90;;
7829;SDS011;3960;51.86894000;5.39848000;2024-03-07T00:56:39;101.25;;;36.88;;
7829;SDS011;3960;51.86894000;5.39848000;2024-03-07T00:59:07;96.80;;;36.75;;
7829;SDS011;3960;51.86894000;5.39848000;2024-03-07T01:01:36;89.35;;;36.13;;
7829;SDS011;3960;51.86894000;5.39848000;2024-03-07T01:04:03;104.28;;;37.88;;
7829;SDS011;3960;51.86894000;5.39848000;2024-03-07T01:06:28;95.18;;;37.40;;
7829;SDS011;3960;51.86894000;5.39848000;2024-03-07T01:08:54;105.13;;;39.42;;
7829;SDS011;3960;51.86894000;5.39848000;2024-03-07T01:11:19;101.05;;;37.17;;
7829;SDS011;3960;51.86894000;5.39848000;2024-03-07T01:13:44;96.95;;;37.85;;
7829;SDS011;3960;51.86894000;5.39848000;2024-03-07T01:16:10;98.53;;;37.20;;
7829;SDS011;3960;51.86894000;5.39848000;2024-03-07T01:18:35;95.70;;;37.72;;
7829;SDS011;3960;51.86894000;5.39848000;2024-03-07T01:21:03;97.30;;;37.47;;
7829;SDS011;3960;51.86894000;5.39848000;2024-03-07T01:23:32;103.72;;;38.78;;
7829;SDS011;3960;51.86894000;5.39848000;2024-03-07T01:25:58;104.88;;;38.20;;
7829;SDS011;3960;51.86894000;5.39848000;2024-03-07T01:28:24;95.28;;;39.00;;
7829;SDS011;3960;51.86894000;5.39848000;2024-03-07T01:30:55;104.43;;;38.50;;
7829;SDS011;3960;51.86894000;5.39848000;2024-03-07T01:33:21;105.65;;;38.75;;
7829;SDS011;3960;51.86894000;5.39848000;2024-03-07T01:35:47;104.97;;;38.80;;
7829;SDS011;3960;51.86894000;5.39848000;2024-03-07T01:38:13;107.80;;;39.53;;
7829;SDS011;3960;51.86894000;5.39848000;2024-03-07T01:40:42;115.10;;;41.47;;
7829;SDS011;3960;51.86894000;5.39848000;2024-03-07T01:43:08;117.50;;;41.47;;
7829;SDS011;3960;51.86894000;5.39848000;2024-03-07T01:45:35;115.80;;;41.17;;
7829;SDS011;3960;51.86894000;5.39848000;2024-03-07T01:48:04;116.05;;;42.22;;
7829;SDS011;3960;51.86894000;5.39848000;2024-03-07T01:50:31;128.15;;;43.22;;
7829;SDS011;3960;51.86894000;5.39848000;2024-03-07T01:52:56;119.43;;;41.85;;
7829;SDS011;3960;51.86894000;5.39848000;2024-03-07T01:55:24;126.75;;;43.45;;
7829;SDS011;3960;51.86894000;5.39848000;2024-03-07T01:57:49;126.90;;;43.42;;
7829;SDS011;3960;51.86894000;5.39848000;2024-03-07T02:00:14;117.22;;;43.17;;
7829;SDS011;3960;51.86894000;5.39848000;2024-03-07T02:02:42;126.07;;;43.63;;
7829;SDS011;3960;51.86894000;5.39848000;2024-03-07T02:05:11;131.98;;;45.47;;
7829;SDS011;3960;51.86894000;5.39848000;2024-03-07T02:07:38;127.53;;;45.10;;
7829;SDS011;3960;51.86894000;5.39848000;2024-03-07T02:10:04;143.45;;;46.28;;
7829;SDS011;3960;51.86894000;5.39848000;2024-03-07T02:12:30;135.15;;;45.25;;
7829;SDS011;3960;51.86894000;5.39848000;2024-03-07T02:14:56;135.90;;;45.35;;
7829;SDS011;3960;51.86894000;5.39848000;2024-03-07T02:17:25;134.38;;;45.13;;
7829;SDS011;3960;51.86894000;5.39848000;2024-03-07T02:19:51;134.77;;;43.47;;
7829;SDS011;3960;51.86894000;5.39848000;2024-03-07T02:22:20;137.20;;;45.22;;
7829;SDS011;3960;51.86894000;5.39848000;2024-03-07T02:24:46;130.15;;;44.92;;
7829;SDS011;3960;51.86894000;5.39848000;2024-03-07T02:27:14;134.45;;;46.58;;
7829;SDS011;3960;51.86894000;5.39848000;2024-03-07T02:29:40;131.18;;;44.97;;
7829;SDS011;3960;51.86894000;5.39848000;2024-03-07T02:32:06;139.57;;;46.28;;
7829;SDS011;3960;51.86894000;5.39848000;2024-03-07T02:34:31;127.63;;;45.17;;
7829;SDS011;3960;51.86894000;5.39848000;2024-03-07T02:36:57;129.65;;;45.00;;
7829;SDS011;3960;51.86894000;5.39848000;2024-03-07T02:39:23;125.05;;;45.50;;
7829;SDS011;3960;51.86894000;5.39848000;2024-03-07T02:41:49;121.95;;;43.90;;
7829;SDS011;3960;51.86894000;5.39848000;2024-03-07T02:44:15;125.10;;;45.58;;
7829;SDS011;3960;51.86894000;5.39848000;2024-03-07T02:46:40;113.20;;;43.13;;
7829;SDS011;3960;51.86894000;5.39848000;2024-03-07T02:49:06;119.95;;;44.17;;
7829;SDS011;3960;51.86894000;5.39848000;2024-03-07T02:51:31;124.15;;;42.85;;
7829;SDS011;3960;51.86894000;5.39848000;2024-03-07T02:53:57;123.85;;;44.80;;
7829;SDS011;3960;51.86894000;5.39848000;2024-03-07T02:56:23;120.65;;;44.28;;
7829;SDS011;3960;51.86894000;5.39848000;2024-03-07T02:58:49;110.88;;;42.78;;
7829;SDS011;3960;51.86894000;5.39848000;2024-03-07T03:01:14;99.00;;;40.88;;
7829;SDS011;3960;51.86894000;5.39848000;2024-03-07T03:03:39;97.05;;;40.13;;
7829;SDS011;3960;51.86894000;5.39848000;2024-03-07T03:06:07;91.55;;;41.53;;
7829;SDS011;3960;51.86894000;5.39848000;2024-03-07T03:08:33;92.82;;;40.13;;
7829;SDS011;3960;51.86894000;5.39848000;2024-03-07T03:10:59;89.10;;;39.08;;
7829;SDS011;3960;51.86894000;5.39848000;2024-03-07T03:13:25;92.80;;;39.22;;
7829;SDS011;3960;51.86894000;5.39848000;2024-03-07T03:15:56;97.05;;;40.13;;
7829;SDS011;3960;51.86894000;5.39848000;2024-03-07T03:18:22;98.05;;;39.65;;
7829;SDS011;3960;51.86894000;5.39848000;2024-03-07T03:20:48;93.85;;;39.58;;
7829;SDS011;3960;51.86894000;5.39848000;2024-03-07T03:23:17;88.80;;;38.90;;
7829;SDS011;3960;51.86894000;5.39848000;2024-03-07T03:25:43;105.00;;;41.55;;
7829;SDS011;3960;51.86894000;5.39848000;2024-03-07T03:28:10;101.65;;;41.42;;
7829;SDS011;3960;51.86894000;5.39848000;2024-03-07T03:30:38;97.90;;;39.38;;
7829;SDS011;3960;51.86894000;5.39848000;2024-03-07T03:33:05;95.75;;;39.03;;
7829;SDS011;3960;51.86894000;5.39848000;2024-03-07T03:35:33;98.78;;;39.45;;
7829;SDS011;3960;51.86894000;5.39848000;2024-03-07T03:37:59;91.78;;;38.60;;
7829;SDS011;3960;51.86894000;5.39848000;2024-03-07T03:40:25;93.07;;;37.60;;
7829;SDS011;3960;51.86894000;5.39848000;2024-03-07T03:42:50;94.68;;;37.17;;
7829;SDS011;3960;51.86894000;5.39848000;2024-03-07T03:45:16;85.88;;;36.95;;
7829;SDS011;3960;51.86894000;5.39848000;2024-03-07T03:47:50;86.85;;;37.03;;
7829;SDS011;3960;51.86894000;5.39848000;2024-03-07T03:50:16;85.78;;;36.83;;
7829;SDS011;3960;51.86894000;5.39848000;2024-03-07T03:52:43;81.43;;;36.90;;
7829;SDS011;3960;51.86894000;5.39848000;2024-03-07T03:55:09;92.70;;;38.95;;
7829;SDS011;3960;51.86894000;5.39848000;2024-03-07T03:57:34;87.07;;;37.42;;
7829;SDS011;3960;51.86894000;5.39848000;2024-03-07T04:00:00;88.90;;;38.35;;
7829;SDS011;3960;51.86894000;5.39848000;2024-03-07T04:02:32;99.20;;;39.20;;
7829;SDS011;3960;51.86894000;5.39848000;2024-03-07T04:04:58;81.80;;;38.03;;
7829;SDS011;3960;51.86894000;5.39848000;2024-03-07T04:07:24;97.28;;;39.15;;
7829;SDS011;3960;51.86894000;5.39848000;2024-03-07T04:09:50;96.10;;;38.22;;
7829;SDS011;3960;51.86894000;5.39848000;2024-03-07T04:12:15;104.38;;;39.92;;
7829;SDS011;3960;51.86894000;5.39848000;2024-03-07T04:14:41;99.35;;;40.30;;
7829;SDS011;3960;51.86894000;5.39848000;2024-03-07T04:17:07;92.70;;;38.92;;
7829;SDS011;3960;51.86894000;5.39848000;2024-03-07T04:19:34;102.55;;;41.75;;
7829;SDS011;3960;51.86894000;5.39848000;2024-03-07T04:22:00;103.47;;;39.78;;
7829;SDS011;3960;51.86894000;5.39848000;2024-03-07T04:24:28;105.55;;;43.28;;
7829;SDS011;3960;51.86894000;5.39848000;2024-03-07T04:26:54;116.30;;;42.45;;
7829;SDS011;3960;51.86894000;5.39848000;2024-03-07T04:29:20;102.60;;;41.95;;
7829;SDS011;3960;51.86894000;5.39848000;2024-03-07T04:31:50;103.03;;;41.17;;
7829;SDS011;3960;51.86894000;5.39848000;2024-03-07T04:34:18;104.13;;;43.25;;
7829;SDS011;3960;51.86894000;5.39848000;2024-03-07T04:36:43;102.97;;;41.80;;
7829;SDS011;3960;51.86894000;5.39848000;2024-03-07T04:39:09;108.70;;;41.47;;
7829;SDS011;3960;51.86894000;5.39848000;2024-03-07T04:41:49;113.50;;;43.20;;
7829;SDS011;3960;51.86894000;5.39848000;2024-03-07T04:44:15;102.30;;;41.88;;
7829;SDS011;3960;51.86894000;5.39848000;2024-03-07T04:46:40;98.03;;;40.45;;
7829;SDS011;3960;51.86894000;5.39848000;2024-03-07T04:49:07;110.53;;;42.75;;
7829;SDS011;3960;51.86894000;5.39848000;2024-03-07T04:51:34;100.90;;;41.70;;
7829;SDS011;3960;51.86894000;5.39848000;2024-03-07T04:53:59;98.57;;;40.00;;
7829;SDS011;3960;51.86894000;5.39848000;2024-03-07T04:56:24;101.10;;;39.78;;
7829;SDS011;3960;51.86894000;5.39848000;2024-03-07T04:58:50;112.40;;;42.67;;
7829;SDS011;3960;51.86894000;5.39848000;2024-03-07T05:01:15;105.82;;;40.92;;
7829;SDS011;3960;51.86894000;5.39848000;2024-03-07T05:03:41;92.55;;;40.25;;
7829;SDS011;3960;51.86894000;5.39848000;2024-03-07T05:06:07;113.72;;;41.20;;
7829;SDS011;3960;51.86894000;5.39848000;2024-03-07T05:08:32;98.32;;;41.83;;
7829;SDS011;3960;51.86894000;5.39848000;2024-03-07T05:10:58;99.45;;;39.88;;
7829;SDS011;3960;51.86894000;5.39848000;2024-03-07T05:13:23;110.28;;;41.40;;
7829;SDS011;3960;51.86894000;5.39848000;2024-03-07T05:15:49;107.47;;;42.67;;
7829;SDS011;3960;51.86894000;5.39848000;2024-03-07T05:18:18;107.15;;;42.45;;
7829;SDS011;3960;51.86894000;5.39848000;2024-03-07T05:20:43;97.32;;;39.30;;
7829;SDS011;3960;51.86894000;5.39848000;2024-03-07T05:23:08;110.15;;;42.08;;
7829;SDS011;3960;51.86894000;5.39848000;2024-03-07T05:25:35;101.07;;;39.63;;
7829;SDS011;3960;51.86894000;5.39848000;2024-03-07T05:28:03;99.03;;;41.53;;
7829;SDS011;3960;51.86894000;5.39848000;2024-03-07T05:30:29;99.97;;;40.13;;
7829;SDS011;3960;51.86894000;5.39848000;2024-03-07T05:32:54;102.85;;;42.15;;
7829;SDS011;3960;51.86894000;5.39848000;2024-03-07T05:35:20;103.97;;;42.15;;
7829;SDS011;3960;51.86894000;5.39848000;2024-03-07T05:37:46;106.50;;;41.58;;
7829;SDS011;3960;51.86894000;5.39848000;2024-03-07T05:40:12;106.40;;;42.17;;
7829;SDS011;3960;51.86894000;5.39848000;2024-03-07T05:42:37;105.85;;;42.30;;
7829;SDS011;3960;51.86894000;5.39848000;2024-03-07T05:45:03;104.25;;;41.85;;
7829;SDS011;3960;51.86894000;5.39848000;2024-03-07T05:47:33;110.47;;;43.72;;
7829;SDS011;3960;51.86894000;5.39848000;2024-03-07T05:49:58;109.20;;;42.47;;
7829;SDS011;3960;51.86894000;5.39848000;2024-03-07T05:52:24;108.00;;;43.60;;
7829;SDS011;3960;51.86894000;5.39848000;2024-03-07T05:54:49;100.90;;;41.78;;
7829;SDS011;3960;51.86894000;5.39848000;2024-03-07T05:57:14;113.03;;;45.28;;
7829;SDS011;3960;51.86894000;5.39848000;2024-03-07T05:59:40;116.07;;;45.13;;
7829;SDS011;3960;51.86894000;5.39848000;2024-03-07T06:02:08;115.45;;;44.22;;
7829;SDS011;3960;51.86894000;5.39848000;2024-03-07T06:04:33;112.13;;;43.65;;
7829;SDS011;3960;51.86894000;5.39848000;2024-03-07T06:06:59;118.43;;;44.08;;
7829;SDS011;3960;51.86894000;5.39848000;2024-03-07T06:09:24;112.75;;;42.65;;
7829;SDS011;3960;51.86894000;5.39848000;2024-03-07T06:11:51;115.90;;;43.63;;
7829;SDS011;3960;51.86894000;5.39848000;2024-03-07T06:14:17;103.43;;;43.67;;
7829;SDS011;3960;51.86894000;5.39848000;2024-03-07T06:16:45;125.38;;;44.85;;
7829;SDS011;3960;51.86894000;5.39848000;2024-03-07T06:19:10;112.72;;;43.13;;
7829;SDS011;3960;51.86894000;5.39848000;2024-03-07T06:21:36;116.82;;;44.83;;
7829;SDS011;3960;51.86894000;5.39848000;2024-03-07T06:24:06;105.93;;;44.55;;
7829;SDS011;3960;51.86894000;5.39848000;2024-03-07T06:26:34;116.93;;;46.83;;
7829;SDS011;3960;51.86894000;5.39848000;2024-03-07T06:29:06;116.93;;;42.92;;
7829;SDS011;3960;51.86894000;5.39848000;2024-03-07T06:31:32;106.97;;;42.20;;
7829;SDS011;3960;51.86894000;5.39848000;2024-03-07T06:33:59;118.22;;;45.22;;
7829;SDS011;3960;51.86894000;5.39848000;2024-03-07T06:36:25;118.15;;;45.33;;
7829;SDS011;3960;51.86894000;5.39848000;2024-03-07T06:38:50;107.88;;;43.95;;
7829;SDS011;3960;51.86894000;5.39848000;2024-03-07T06:41:16;114.70;;;43.58;;
7829;SDS011;3960;51.86894000;5.39848000;2024-03-07T06:43:42;124.47;;;43.72;;
7829;SDS011;3960;51.86894000;5.39848000;2024-03-07T06:46:09;116.93;;;43.72;;
7829;SDS011;3960;51.86894000;5.39848000;2024-03-07T06:48:35;108.68;;;45.03;;
7829;SDS011;3960;51.86894000;5.39848000;2024-03-07T06:51:01;105.03;;;43.17;;
7829;SDS011;3960;51.86894000;5.39848000;2024-03-07T06:53:26;112.88;;;44.25;;
7829;SDS011;3960;51.86894000;5.39848000;2024-03-07T06:55:53;107.47;;;43.10;;
7829;SDS011;3960;51.86894000;5.39848000;2024-03-07T06:58:22;106.53;;;43.17;;
7829;SDS011;3960;51.86894000;5.39848000;2024-03-07T07:00:48;107.95;;;42.97;;
7829;SDS011;3960;51.86894000;5.39848000;2024-03-07T07:03:19;105.15;;;41.53;;
7829;SDS011;3960;51.86894000;5.39848000;2024-03-07T07:05:46;99.65;;;40.70;;
7829;SDS011;3960;51.86894000;5.39848000;2024-03-07T07:08:11;102.47;;;40.90;;
7829;SDS011;3960;51.86894000;5.39848000;2024-03-07T07:10:41;92.93;;;40.65;;
7829;SDS011;3960;51.86894000;5.39848000;2024-03-07T07:13:07;95.88;;;41.28;;
7829;SDS011;3960;51.86894000;5.39848000;2024-03-07T07:15:33;92.35;;;38.95;;
7829;SDS011;3960;51.86894000;5.39848000;2024-03-07T07:17:59;81.63;;;38.97;;
7829;SDS011;3960;51.86894000;5.39848000;2024-03-07T07:20:27;92.93;;;39.17;;
7829;SDS011;3960;51.86894000;5.39848000;2024-03-07T07:22:52;84.57;;;39.35;;
7829;SDS011;3960;51.86894000;5.39848000;2024-03-07T07:25:18;82.97;;;38.83;;
7829;SDS011;3960;51.86894000;5.39848000;2024-03-07T07:27:51;79.03;;;37.40;;
7829;SDS011;3960;51.86894000;5.39848000;2024-03-07T07:30:18;79.10;;;36.38;;
7829;SDS011;3960;51.86894000;5.39848000;2024-03-07T07:32:45;73.60;;;35.08;;
7829;SDS011;3960;51.86894000;5.39848000;2024-03-07T07:35:10;69.97;;;34.58;;
7829;SDS011;3960;51.86894000;5.39848000;2024-03-07T07:37:40;81.82;;;34.33;;
7829;SDS011;3960;51.86894000;5.39848000;2024-03-07T07:40:13;79.63;;;34.63;;
7829;SDS011;3960;51.86894000;5.39848000;2024-03-07T07:42:50;61.60;;;32.67;;
7829;SDS011;3960;51.86894000;5.39848000;2024-03-07T07:45:19;63.40;;;32.78;;
7829;SDS011;3960;51.86894000;5.39848000;2024-03-07T07:47:47;62.78;;;32.72;;
7829;SDS011;3960;51.86894000;5.39848000;2024-03-07T07:50:20;65.70;;;32.42;;
7829;SDS011;3960;51.86894000;5.39848000;2024-03-07T07:52:47;59.53;;;31.60;;
7829;SDS011;3960;51.86894000;5.39848000;2024-03-07T07:55:23;56.65;;;30.40;;
7829;SDS011;3960;51.86894000;5.39848000;2024-03-07T07:57:51;53.28;;;29.88;;
7829;SDS011;3960;51.86894000;5.39848000;2024-03-07T08:00:24;54.22;;;28.67;;
7829;SDS011;3960;51.86894000;5.39848000;2024-03-07T08:02:58;57.10;;;28.92;;
7829;SDS011;3960;51.86894000;5.39848000;2024-03-07T08:05:26;50.28;;;28.95;;
7829;SDS011;3960;51.86894000;5.39848000;2024-03-07T08:07:53;52.50;;;27.80;;
7829;SDS011;3960;51.86894000;5.39848000;2024-03-07T08:10:20;50.67;;;28.02;;
7829;SDS011;3960;51.86894000;5.39848000;2024-03-07T08:12:48;52.22;;;27.15;;
7829;SDS011;3960;51.86894000;5.39848000;2024-03-07T08:15:14;52.55;;;26.77;;
7829;SDS011;3960;51.86894000;5.39848000;2024-03-07T08:17:40;50.92;;;27.05;;
7829;SDS011;3960;51.86894000;5.39848000;2024-03-07T08:20:10;45.42;;;26.73;;
7829;SDS011;3960;51.86894000;5.39848000;2024-03-07T08:22:40;45.85;;;25.92;;
7829;SDS011;3960;51.86894000;5.39848000;2024-03-07T08:25:09;41.35;;;25.83;;
7829;SDS011;3960;51.86894000;5.39848000;2024-03-07T08:27:42;39.55;;;24.60;;
7829;SDS011;3960;51.86894000;5.39848000;2024-03-07T08:30:08;44.15;;;24.85;;
7829;SDS011;3960;51.86894000;5.39848000;2024-03-07T08:32:39;37.30;;;23.90;;
7829;SDS011;3960;51.86894000;5.39848000;2024-03-07T08:35:05;37.83;;;23.05;;
7829;SDS011;3960;51.86894000;5.39848000;2024-03-07T08:37:35;40.22;;;22.42;;
7829;SDS011;3960;51.86894000;5.39848000;2024-03-07T08:40:01;40.00;;;22.00;;
7829;SDS011;3960;51.86894000;5.39848000;2024-03-07T08:42:29;33.65;;;20.60;;
7829;SDS011;3960;51.86894000;5.39848000;2024-03-07T08:45:04;31.80;;;19.95;;
7829;SDS011;3960;51.86894000;5.39848000;2024-03-07T08:47:33;31.55;;;20.80;;
7829;SDS011;3960;51.86894000;5.39848000;2024-03-07T08:49:59;33.03;;;20.45;;
7829;SDS011;3960;51.86894000;5.39848000;2024-03-07T08:52:25;29.60;;;19.58;;
7829;SDS011;3960;51.86894000;5.39848000;2024-03-07T08:54:51;31.80;;;19.35;;
7829;SDS011;3960;51.86894000;5.39848000;2024-03-07T08:57:16;26.67;;;18.35;;
7829;SDS011;3960;51.86894000;5.39848000;2024-03-07T08:59:43;27.15;;;18.17;;
7829;SDS011;3960;51.86894000;5.39848000;2024-03-07T09:02:09;29.98;;;19.02;;
7829;SDS011;3960;51.86894000;5.39848000;2024-03-07T09:04:40;26.30;;;17.55;;
7829;SDS011;3960;51.86894000;5.39848000;2024-03-07T09:07:07;25.83;;;17.70;;
7829;SDS011;3960;51.86894000;5.39848000;2024-03-07T09:09:33;25.58;;;16.92;;
7829;SDS011;3960;51.86894000;5.39848000;2024-03-07T09:12:00;25.35;;;17.33;;
7829;SDS011;3960;51.86894000;5.39848000;2024-03-07T09:14:27;23.90;;;16.85;;
7829;SDS011;3960;51.86894000;5.39848000;2024-03-07T09:16:52;26.33;;;16.45;;
7829;SDS011;3960;51.86894000;5.39848000;2024-03-07T09:19:18;23.42;;;15.90;;
7829;SDS011;3960;51.86894000;5.39848000;2024-03-07T09:21:48;23.70;;;15.85;;
7829;SDS011;3960;51.86894000;5.39848000;2024-03-07T09:24:15;22.85;;;15.90;;
7829;SDS011;3960;51.86894000;5.39848000;2024-03-07T09:26:41;23.70;;;16.10;;
7829;SDS011;3960;51.86894000;5.39848000;2024-03-07T09:29:06;23.38;;;15.40;;
7829;SDS011;3960;51.86894000;5.39848000;2024-03-07T09:31:32;22.92;;;15.90;;
7829;SDS011;3960;51.86894000;5.39848000;2024-03-07T09:33:58;22.77;;;15.95;;
7829;SDS011;3960;51.86894000;5.39848000;2024-03-07T09:36:24;23.73;;;15.88;;
7829;SDS011;3960;51.86894000;5.39848000;2024-03-07T09:38:50;21.77;;;16.17;;
7829;SDS011;3960;51.86894000;5.39848000;2024-03-07T09:41:15;21.55;;;15.80;;
7829;SDS011;3960;51.86894000;5.39848000;2024-03-07T09:43:43;23.27;;;15.80;;
7829;SDS011;3960;51.86894000;5.39848000;2024-03-07T09:46:18;24.65;;;15.98;;
7829;SDS011;3960;51.86894000;5.39848000;2024-03-07T09:48:44;25.08;;;15.88;;
7829;SDS011;3960;51.86894000;5.39848000;2024-03-07T09:51:09;21.50;;;16.00;;
7829;SDS011;3960;51.86894000;5.39848000;2024-03-07T09:53:42;22.85;;;16.15;;
7829;SDS011;3960;51.86894000;5.39848000;2024-03-07T09:56:10;23.10;;;15.18;;
7829;SDS011;3960;51.86894000;5.39848000;2024-03-07T09:58:38;23.05;;;15.80;;
7829;SDS011;3960;51.86894000;5.39848000;2024-03-07T10:01:05;23.50;;;16.25;;
7829;SDS011;3960;51.86894000;5.39848000;2024-03-07T10:03:38;23.80;;;16.15;;
7829;SDS011;3960;51.86894000;5.39848000;2024-03-07T10:06:06;26.30;;;15.63;;
7829;SDS011;3960;51.86894000;5.39848000;2024-03-07T10:08:34;20.25;;;14.90;;
7829;SDS011;3960;51.86894000;5.39848000;2024-03-07T10:11:00;23.73;;;15.73;;
7829;SDS011;3960;51.86894000;5.39848000;2024-03-07T10:13:26;19.25;;;14.38;;
7829;SDS011;3960;51.86894000;5.39848000;2024-03-07T10:15:51;21.30;;;14.75;;
7829;SDS011;3960;51.86894000;5.39848000;2024-03-07T10:18:18;21.33;;;15.43;;
7829;SDS011;3960;51.86894000;5.39848000;2024-03-07T10:21:05;18.25;;;13.85;;
7829;SDS011;3960;51.86894000;5.39848000;2024-03-07T10:23:31;21.05;;;14.20;;
7829;SDS011;3960;51.86894000;5.39848000;2024-03-07T10:25:58;21.38;;;14.60;;
7829;SDS011;3960;51.86894000;5.39848000;2024-03-07T10:28:28;19.77;;;13.52;;
7829;SDS011;3960;51.86894000;5.39848000;2024-03-07T10:30:57;17.60;;;13.27;;
7829;SDS011;3960;51.86894000;5.39848000;2024-03-07T10:33:26;18.05;;;13.55;;
7829;SDS011;3960;51.86894000;5.39848000;2024-03-07T10:38:19;20.77;;;13.80;;
7829;SDS011;3960;51.86894000;5.39848000;2024-03-07T10:40:53;18.17;;;13.93;;
7829;SDS011;3960;51.86894000;5.39848000;2024-03-07T10:43:21;17.90;;;13.43;;
7829;SDS011;3960;51.86894000;5.39848000;2024-03-07T10:45:53;17.30;;;12.90;;
7829;SDS011;3960;51.86894000;5.39848000;2024-03-07T10:48:22;22.05;;;13.18;;
7829;SDS011;3960;51.86894000;5.39848000;2024-03-07T10:54:16;16.77;;;12.77;;
7829;SDS011;3960;51.86894000;5.39848000;2024-03-07T10:59:22;17.42;;;12.82;;
7829;SDS011;3960;51.86894000;5.39848000;2024-03-07T11:01:57;20.33;;;13.88;;
7829;SDS011;3960;51.86894000;5.39848000;2024-03-07T11:04:25;19.05;;;13.63;;
7829;SDS011;3960;51.86894000;5.39848000;2024-03-07T11:06:50;18.45;;;13.65;;
7829;SDS011;3960;51.86894000;5.39848000;2024-03-07T11:09:16;17.58;;;13.40;;
7829;SDS011;3960;51.86894000;5.39848000;2024-03-07T11:11:51;16.92;;;13.45;;
7829;SDS011;3960;51.86894000;5.39848000;2024-03-07T11:14:18;24.10;;;14.43;;
7829;SDS011;3960;51.86894000;5.39848000;2024-03-07T11:16:44;22.73;;;13.48;;
7829;SDS011;3960;51.86894000;5.39848000;2024-03-07T11:19:27;16.85;;;12.80;;
7829;SDS011;3960;51.86894000;5.39848000;2024-03-07T11:21:55;19.02;;;13.68;;
7829;SDS011;3960;51.86894000;5.39848000;2024-03-07T11:24:30;19.20;;;14.00;;
7829;SDS011;3960;51.86894000;5.39848000;2024-03-07T11:27:03;20.08;;;13.52;;
7829;SDS011;3960;51.86894000;5.39848000;2024-03-07T11:29:49;18.42;;;13.57;;
7829;SDS011;3960;51.86894000;5.39848000;2024-03-07T11:32:19;16.38;;;13.10;;
7829;SDS011;3960;51.86894000;5.39848000;2024-03-07T11:34:50;19.40;;;13.18;;
7829;SDS011;3960;51.86894000;5.39848000;2024-03-07T11:39:53;18.70;;;13.32;;
7829;SDS011;3960;51.86894000;5.39848000;2024-03-07T11:42:24;17.67;;;13.38;;
7829;SDS011;3960;51.86894000;5.39848000;2024-03-07T11:44:51;18.83;;;13.75;;
7829;SDS011;3960;51.86894000;5.39848000;2024-03-07T11:47:17;17.95;;;12.95;;
7829;SDS011;3960;51.86894000;5.39848000;2024-03-07T11:49:51;17.63;;;13.35;;
7829;SDS011;3960;51.86894000;5.39848000;2024-03-07T11:52:17;22.30;;;14.25;;
7829;SDS011;3960;51.86894000;5.39848000;2024-03-07T11:54:46;19.52;;;14.30;;
7829;SDS011;3960;51.86894000;5.39848000;2024-03-07T11:57:12;17.65;;;13.18;;
7829;SDS011;3960;51.86894000;5.39848000;2024-03-07T11:59:42;16.92;;;13.02;;
7829;SDS011;3960;51.86894000;5.39848000;2024-03-07T12:02:12;16.98;;;12.80;;
7829;SDS011;3960;51.86894000;5.39848000;2024-03-07T12:04:44;19.10;;;13.30;;
7829;SDS011;3960;51.86894000;5.39848000;2024-03-07T12:07:09;18.63;;;13.77;;
7829;SDS011;3960;51.86894000;5.39848000;2024-03-07T12:09:38;16.55;;;13.38;;
7829;SDS011;3960;51.86894000;5.39848000;2024-03-07T12:12:05;18.48;;;12.70;;
7829;SDS011;3960;51.86894000;5.39848000;2024-03-07T12:14:32;22.15;;;13.27;;
7829;SDS011;3960;51.86894000;5.39848000;2024-03-07T12:16:59;22.15;;;13.23;;
7829;SDS011;3960;51.86894000;5.39848000;2024-03-07T12:19:25;19.92;;;12.95;;
7829;SDS011;3960;51.86894000;5.39848000;2024-03-07T12:21:55;18.98;;;12.82;;
7829;SDS011;3960;51.86894000;5.39848000;2024-03-07T12:24:21;18.60;;;12.55;;
7829;SDS011;3960;51.86894000;5.39848000;2024-03-07T12:26:52;16.75;;;12.80;;
7829;SDS011;3960;51.86894000;5.39848000;2024-03-07T12:29:25;19.20;;;13.07;;
7829;SDS011;3960;51.86894000;5.39848000;2024-03-07T12:31:51;16.98;;;12.95;;
7829;SDS011;3960;51.86894000;5.39848000;2024-03-07T12:34:16;17.95;;;12.65;;
7829;SDS011;3960;51.86894000;5.39848000;2024-03-07T12:36:45;15.75;;;12.80;;
7829;SDS011;3960;51.86894000;5.39848000;2024-03-07T12:41:57;14.95;;;11.75;;
7829;SDS011;3960;51.86894000;5.39848000;2024-03-07T12:44:23;14.77;;;11.98;;
7829;SDS011;3960;51.86894000;5.39848000;2024-03-07T12:46:48;17.98;;;12.15;;
7829;SDS011;3960;51.86894000;5.39848000;2024-03-07T12:49:20;19.52;;;12.13;;
7829;SDS011;3960;51.86894000;5.39848000;2024-03-07T12:54:21;19.00;;;11.60;;
7829;SDS011;3960;51.86894000;5.39848000;2024-03-07T12:56:50;17.63;;;11.90;;
7829;SDS011;3960;51.86894000;5.39848000;2024-03-07T12:59:16;17.40;;;12.20;;
7829;SDS011;3960;51.86894000;5.39848000;2024-03-07T13:01:45;19.73;;;12.68;;
7829;SDS011;3960;51.86894000;5.39848000;2024-03-07T13:04:12;17.80;;;12.68;;